createdAt,value
2019-03-09T00:00:24.285Z,11.86
2019-03-09T00:02:53.503Z,11.85
2019-03-09T00:05:22.482Z,11.83
2019-03-09T00:07:51.503Z,11.82
2019-03-09T00:10:20.627Z,11.82
2019-03-09T00:12:49.494Z,11.84
2019-03-09T00:15:18.535Z,11.82
2019-03-09T00:17:47.473Z,11.82
2019-03-09T00:20:16.538Z,11.82
2019-03-09T00:22:47.730Z,11.80
2019-03-09T00:25:22.208Z,11.81
2019-03-09T00:28:06.959Z,11.80
2019-03-09T00:30:54.207Z,11.78
2019-03-09T00:33:23.256Z,11.78
2019-03-09T00:35:52.315Z,11.79
2019-03-09T00:38:21.219Z,11.78
2019-03-09T00:40:50.296Z,11.76
2019-03-09T00:43:19.225Z,11.75
2019-03-09T00:45:48.303Z,11.77
2019-03-09T00:48:17.332Z,11.75
2019-03-09T00:50:46.324Z,11.77
2019-03-09T00:53:15.231Z,11.76
2019-03-09T00:58:32.038Z,11.75
2019-03-09T01:01:00.937Z,11.73
2019-03-09T01:03:30.039Z,11.74
2019-03-09T01:05:59.069Z,11.74
2019-03-09T01:08:27.925Z,11.73
2019-03-09T01:10:56.860Z,11.74
2019-03-09T01:13:25.685Z,11.73
2019-03-09T01:15:54.612Z,11.73
2019-03-09T01:18:25.359Z,11.72
2019-03-09T01:20:54.301Z,11.71
2019-03-09T01:23:23.531Z,11.72
2019-03-09T01:25:52.454Z,11.71
2019-03-09T01:28:21.597Z,11.70
2019-03-09T01:30:50.577Z,11.69
2019-03-09T01:33:19.601Z,11.68
2019-03-09T01:35:48.537Z,11.69
2019-03-09T01:38:17.407Z,11.70
2019-03-09T01:40:46.625Z,11.70
2019-03-09T01:43:15.561Z,11.68
2019-03-09T01:45:44.672Z,11.67
2019-03-09T01:48:34.089Z,11.66
2019-03-09T01:51:03.128Z,11.64
2019-03-09T01:53:36.755Z,11.63
2019-03-09T01:56:02.767Z,11.63
2019-03-09T01:58:31.647Z,11.62
2019-03-09T02:01:00.827Z,11.63
2019-03-09T02:03:29.684Z,11.62
2019-03-09T02:05:58.703Z,11.62
2019-03-09T02:08:27.585Z,11.60
2019-03-09T02:10:56.797Z,11.61
2019-03-09T02:13:25.827Z,11.60
2019-03-09T02:15:54.867Z,11.60
2019-03-09T02:18:23.895Z,11.58
2019-03-09T02:20:52.848Z,11.57
2019-03-09T02:23:21.871Z,11.57
2019-03-09T02:25:50.879Z,11.55
2019-03-09T02:28:19.832Z,11.56
2019-03-09T02:30:48.740Z,11.56
2019-03-09T02:33:17.866Z,11.54
2019-03-09T02:35:46.755Z,11.53
2019-03-09T02:38:26.222Z,11.54
2019-03-09T02:40:55.083Z,11.53
2019-03-09T02:43:23.937Z,11.53
2019-03-09T02:45:53.059Z,11.53
2019-03-09T02:48:22.116Z,11.53
2019-03-09T02:50:57.447Z,11.54
2019-03-09T02:53:27.305Z,11.53
2019-03-09T02:55:56.533Z,11.54
2019-03-09T02:58:25.702Z,11.53
2019-03-09T03:01:29.079Z,11.53
2019-03-09T03:03:58.046Z,11.53
2019-03-09T03:06:27.127Z,11.54
2019-03-09T03:08:56.171Z,11.52
2019-03-09T03:11:25.163Z,11.52
2019-03-09T03:13:54.276Z,11.53
2019-03-09T03:16:23.212Z,11.53
2019-03-09T03:18:52.219Z,11.53
2019-03-09T03:21:21.224Z,11.52
2019-03-09T03:23:50.267Z,11.52
2019-03-09T03:26:19.160Z,11.52
2019-03-09T03:28:47.960Z,11.52
2019-03-09T03:31:16.833Z,11.52
2019-03-09T03:33:45.974Z,11.52
2019-03-09T03:36:15.070Z,11.51
2019-03-09T03:38:44.252Z,11.49
2019-03-09T03:41:13.373Z,11.46
2019-03-09T03:43:42.438Z,11.47
2019-03-09T03:46:11.365Z,11.47
2019-03-09T03:48:40.424Z,11.49
2019-03-09T03:51:09.406Z,11.50
2019-03-09T03:53:38.538Z,11.47
2019-03-09T03:56:07.433Z,11.47
2019-03-09T03:58:36.561Z,11.45
2019-03-09T04:01:05.484Z,11.46
2019-03-09T04:03:34.599Z,11.47
2019-03-09T04:06:03.579Z,11.45
2019-03-09T04:08:32.528Z,11.43
2019-03-09T04:11:01.515Z,11.43
2019-03-09T04:13:30.482Z,11.43
2019-03-09T04:15:59.602Z,11.41
2019-03-09T04:18:28.526Z,11.41
2019-03-09T04:20:57.593Z,11.43
2019-03-09T04:23:26.576Z,11.42
2019-03-09T04:25:55.568Z,11.42
2019-03-09T04:28:24.538Z,11.41
2019-03-09T04:30:53.435Z,11.40
2019-03-09T04:33:22.647Z,11.39
2019-03-09T04:35:51.690Z,11.39
2019-03-09T04:38:20.579Z,11.38
2019-03-09T04:40:49.489Z,11.39
2019-03-09T04:43:18.391Z,11.37
2019-03-09T04:45:47.409Z,11.37
2019-03-09T04:48:16.294Z,11.37
2019-03-09T04:50:45.252Z,11.37
2019-03-09T04:53:14.159Z,11.37
2019-03-09T04:55:43.020Z,11.39
2019-03-09T04:58:11.842Z,11.38
2019-03-09T05:00:40.834Z,11.38
2019-03-09T05:03:28.850Z,11.38
2019-03-09T05:05:57.854Z,11.36
2019-03-09T05:09:14.626Z,11.35
2019-03-09T05:11:43.759Z,11.35
2019-03-09T05:14:24.049Z,11.33
2019-03-09T05:16:52.296Z,11.33
2019-03-09T05:19:21.144Z,11.31
2019-03-09T05:21:49.993Z,11.32
2019-03-09T05:24:18.919Z,11.32
2019-03-09T05:26:48.021Z,11.33
2019-03-09T05:29:16.962Z,11.33
2019-03-09T05:31:46.034Z,11.34
2019-03-09T05:34:15.073Z,11.32
2019-03-09T05:36:44.040Z,11.33
2019-03-09T05:39:12.961Z,11.32
2019-03-09T05:41:42.024Z,11.31
2019-03-09T05:44:11.046Z,11.31
2019-03-09T05:46:40.055Z,11.31
2019-03-09T05:49:09.136Z,11.31
2019-03-09T05:51:38.048Z,11.32
2019-03-09T05:54:07.114Z,11.31
2019-03-09T05:56:36.119Z,11.32
2019-03-09T05:59:05.038Z,11.30
2019-03-09T06:01:33.833Z,11.31
2019-03-09T06:04:02.956Z,11.30
2019-03-09T06:06:31.970Z,11.31
2019-03-09T06:09:00.875Z,11.30
2019-03-09T06:11:30.124Z,11.31
2019-03-09T06:13:59.202Z,11.31
2019-03-09T06:16:28.193Z,11.32
2019-03-09T06:18:57.263Z,11.30
2019-03-09T06:21:26.262Z,11.31
2019-03-09T06:23:55.327Z,11.30
2019-03-09T06:26:24.201Z,11.31
2019-03-09T06:28:53.073Z,11.31
2019-03-09T06:31:22.367Z,11.31
2019-03-09T06:33:53.555Z,11.32
2019-03-09T06:36:59.727Z,11.31
2019-03-09T06:39:35.912Z,11.32
2019-03-09T06:42:43.377Z,11.32
2019-03-09T06:45:14.284Z,11.32
2019-03-09T06:47:43.082Z,11.33
2019-03-09T06:50:14.298Z,11.33
2019-03-09T06:52:43.372Z,11.35
2019-03-09T06:55:12.802Z,11.35
2019-03-09T06:57:41.668Z,11.38
2019-03-09T07:00:34.456Z,11.40
2019-03-09T07:03:03.378Z,11.40
2019-03-09T07:05:32.456Z,11.39
2019-03-09T07:08:01.850Z,11.41
2019-03-09T07:10:30.960Z,11.39
2019-03-09T07:13:00.098Z,11.40
2019-03-09T07:15:47.660Z,11.38
2019-03-09T07:18:21.809Z,11.39
2019-03-09T07:20:50.604Z,11.40
2019-03-09T07:23:19.595Z,11.40
2019-03-09T07:28:36.307Z,11.42
2019-03-09T07:31:05.159Z,11.40
2019-03-09T07:33:34.160Z,11.41
2019-03-09T07:36:03.222Z,11.40
2019-03-09T07:38:32.352Z,11.39
2019-03-09T07:41:01.614Z,11.40
2019-03-09T07:43:30.631Z,11.40
2019-03-09T07:45:59.679Z,11.40
2019-03-09T07:48:28.811Z,11.41
2019-03-09T07:51:16.855Z,11.41
2019-03-09T07:53:45.765Z,11.40
2019-03-09T07:56:14.647Z,10.98
2019-03-09T07:58:43.440Z,11.43
2019-03-09T08:01:12.451Z,11.44
2019-03-09T08:03:41.467Z,11.43
2019-03-09T08:06:10.321Z,11.42
2019-03-09T08:08:39.310Z,11.42
2019-03-09T08:11:08.361Z,11.41
2019-03-09T08:13:37.232Z,11.43
2019-03-09T08:16:06.228Z,11.44
2019-03-09T08:18:35.083Z,11.43
2019-03-09T08:21:03.933Z,11.46
2019-03-09T08:23:32.902Z,11.48
2019-03-09T08:26:01.873Z,11.48
2019-03-09T08:28:30.823Z,11.48
2019-03-09T08:30:59.691Z,11.51
2019-03-09T08:33:30.783Z,11.50
2019-03-09T08:35:59.407Z,11.50
2019-03-09T08:38:28.430Z,11.52
2019-03-09T08:40:57.447Z,11.51
2019-03-09T08:43:26.432Z,11.51
2019-03-09T08:45:55.571Z,11.52
2019-03-09T08:48:24.405Z,11.51
2019-03-09T08:50:53.272Z,11.50
2019-03-09T08:53:22.096Z,11.50
2019-03-09T08:55:50.964Z,11.51
2019-03-09T08:58:19.757Z,11.52
2019-03-09T09:00:48.781Z,11.52
2019-03-09T09:03:17.775Z,11.56
2019-03-09T09:05:46.782Z,11.57
2019-03-09T09:08:15.776Z,11.58
2019-03-09T09:10:44.620Z,11.57
2019-03-09T09:13:13.603Z,11.59
2019-03-09T09:15:42.572Z,11.57
2019-03-09T09:18:11.679Z,11.57
2019-03-09T09:20:40.589Z,11.56
2019-03-09T09:23:09.703Z,11.59
2019-03-09T09:25:38.938Z,11.59
2019-03-09T09:28:08.105Z,11.60
2019-03-09T09:30:37.090Z,11.58
2019-03-09T09:33:06.251Z,11.60
2019-03-09T09:35:35.301Z,11.58
2019-03-09T09:38:04.224Z,11.57
2019-03-09T09:40:33.398Z,11.54
2019-03-09T09:43:02.391Z,11.53
2019-03-09T09:45:31.210Z,11.52
2019-03-09T09:48:00.121Z,11.51
2019-03-09T09:50:29.138Z,11.52
2019-03-09T09:52:58.228Z,11.50
2019-03-09T09:55:27.377Z,11.51
2019-03-09T09:57:56.396Z,11.52
2019-03-09T10:00:34.783Z,11.51
2019-03-09T10:03:03.625Z,11.52
2019-03-09T10:05:32.643Z,11.54
2019-03-09T10:08:01.511Z,11.53
2019-03-09T10:10:30.402Z,11.54
2019-03-09T10:13:00.323Z,11.56
2019-03-09T10:15:29.370Z,11.56
2019-03-09T10:17:58.477Z,11.55
2019-03-09T10:20:27.555Z,11.56
2019-03-09T10:23:04.196Z,11.55
2019-03-09T10:25:27.404Z,11.55
2019-03-09T10:27:56.293Z,11.55
2019-03-09T10:30:25.525Z,11.54
2019-03-09T10:32:54.557Z,11.55
2019-03-09T10:35:23.530Z,11.56
2019-03-09T10:37:52.569Z,11.60
2019-03-09T10:40:21.558Z,11.63
2019-03-09T10:42:50.599Z,11.67
2019-03-09T10:45:19.727Z,11.69
2019-03-09T10:47:48.714Z,11.70
2019-03-09T10:50:17.589Z,11.71
2019-03-09T10:52:46.700Z,11.72
2019-03-09T10:55:17.738Z,11.74
2019-03-09T10:57:46.595Z,11.73
2019-03-09T11:00:37.679Z,11.74
2019-03-09T11:03:06.822Z,11.74
2019-03-09T11:05:35.811Z,11.75
2019-03-09T11:08:07.744Z,11.75
2019-03-09T11:10:36.792Z,11.76
2019-03-09T11:13:05.813Z,11.77
2019-03-09T11:15:34.904Z,11.77
2019-03-09T11:18:03.890Z,11.77
2019-03-09T11:20:32.856Z,11.78
2019-03-09T11:23:01.814Z,11.79
2019-03-09T11:25:31.071Z,11.79
2019-03-09T11:28:08.860Z,11.81
2019-03-09T11:30:37.798Z,11.81
2019-03-09T11:33:06.780Z,11.80
2019-03-09T11:35:35.916Z,11.82
2019-03-09T11:38:04.917Z,11.84
2019-03-09T11:40:33.986Z,11.86
2019-03-09T11:43:02.921Z,11.87
2019-03-09T11:45:31.928Z,11.88
2019-03-09T11:48:00.971Z,11.90
2019-03-09T11:50:30.175Z,11.91
2019-03-09T11:52:59.022Z,11.92
2019-03-09T11:58:15.923Z,11.97
2019-03-09T12:00:45.492Z,11.98
2019-03-09T12:03:15.284Z,12.01
2019-03-09T12:05:44.062Z,12.04
2019-03-09T12:08:12.980Z,12.06
2019-03-09T12:10:42.062Z,12.07
2019-03-09T12:13:11.128Z,12.09
2019-03-09T12:15:40.102Z,12.10
2019-03-09T12:18:09.341Z,12.13
2019-03-09T12:20:38.170Z,12.15
2019-03-09T12:23:21.189Z,12.16
2019-03-09T12:25:50.160Z,12.18
2019-03-09T12:28:19.202Z,12.23
2019-03-09T12:30:48.126Z,12.25
2019-03-09T12:33:17.194Z,12.26
2019-03-09T12:35:46.169Z,12.28
2019-03-09T12:38:15.141Z,12.29
2019-03-09T12:40:44.125Z,12.30
2019-03-09T12:43:12.924Z,12.30
2019-03-09T12:45:41.814Z,12.32
2019-03-09T12:48:10.763Z,12.32
2019-03-09T12:50:39.826Z,12.34
2019-03-09T12:53:08.692Z,12.35
2019-03-09T12:55:37.808Z,12.39
2019-03-09T12:58:06.809Z,12.42
2019-03-09T13:00:35.733Z,12.46
2019-03-09T13:03:04.659Z,12.49
2019-03-09T13:05:33.575Z,12.52
2019-03-09T13:08:02.485Z,12.54
2019-03-09T13:10:31.421Z,12.54
2019-03-09T13:13:01.289Z,12.56
2019-03-09T13:15:30.414Z,12.58
2019-03-09T13:17:59.471Z,12.58
2019-03-09T13:20:28.432Z,12.60
2019-03-09T13:22:57.370Z,12.58
2019-03-09T13:25:26.486Z,12.57
2019-03-09T13:27:55.477Z,12.57
2019-03-09T13:30:24.459Z,12.57
2019-03-09T13:32:53.448Z,12.55
2019-03-09T13:35:22.508Z,12.54
2019-03-09T13:37:51.645Z,12.51
2019-03-09T13:40:20.570Z,12.50
2019-03-09T13:42:49.636Z,12.48
2019-03-09T13:45:18.595Z,12.46
2019-03-09T13:47:47.484Z,12.44
2019-03-09T13:50:16.612Z,12.44
2019-03-09T13:52:45.589Z,12.42
2019-03-09T13:55:14.705Z,12.42
2019-03-09T13:57:43.653Z,12.41
2019-03-09T14:00:14.028Z,12.40
2019-03-09T14:02:42.002Z,12.40
2019-03-09T14:05:10.883Z,12.36
2019-03-09T14:07:40.068Z,12.35
2019-03-09T14:10:10.164Z,12.34
2019-03-09T14:12:39.250Z,12.34
2019-03-09T14:15:09.808Z,12.32
2019-03-09T14:17:38.781Z,12.31
2019-03-09T14:20:08.515Z,12.31
2019-03-09T14:22:37.844Z,12.30
2019-03-09T14:25:07.059Z,12.28
2019-03-09T14:27:35.841Z,12.27
2019-03-09T14:30:05.500Z,12.27
2019-03-09T14:32:34.605Z,12.27
2019-03-09T14:35:04.071Z,12.26
2019-03-09T14:37:32.897Z,12.25
2019-03-09T14:40:01.774Z,12.23
2019-03-09T14:42:30.867Z,12.21
2019-03-09T14:44:59.961Z,12.22
2019-03-09T14:47:28.847Z,12.21
2019-03-09T14:49:57.850Z,12.18
2019-03-09T14:52:26.966Z,12.18
2019-03-09T14:54:55.969Z,12.18
2019-03-09T14:57:24.971Z,12.16
2019-03-09T14:59:54.051Z,12.14
2019-03-09T15:02:22.988Z,12.10
2019-03-09T15:04:52.046Z,12.10
2019-03-09T15:07:21.038Z,12.08
2019-03-09T15:09:50.028Z,12.08
2019-03-09T15:12:19.006Z,12.07
2019-03-09T15:14:48.047Z,12.09
2019-03-09T15:17:17.099Z,12.15
2019-03-09T15:19:45.965Z,12.23
2019-03-09T15:22:14.751Z,12.35
2019-03-09T15:24:43.794Z,12.43
2019-03-09T15:27:12.761Z,12.44
2019-03-09T15:29:41.611Z,12.44
2019-03-09T15:32:10.702Z,12.42
2019-03-09T15:34:39.936Z,12.40
2019-03-09T15:37:08.858Z,12.37
2019-03-09T15:39:37.961Z,12.36
2019-03-09T15:42:06.984Z,12.34
2019-03-09T15:44:35.898Z,12.31
2019-03-09T15:47:05.965Z,12.30
2019-03-09T15:49:34.928Z,12.27
2019-03-09T15:52:03.951Z,12.25
2019-03-09T15:54:33.298Z,12.24
2019-03-09T15:57:02.297Z,12.24
2019-03-09T15:59:31.277Z,12.21
2019-03-09T16:02:07.964Z,12.19
2019-03-09T16:04:36.889Z,12.17
2019-03-09T16:07:07.406Z,12.17
2019-03-09T16:09:36.271Z,12.14
2019-03-09T16:12:05.307Z,12.13
2019-03-09T16:14:34.432Z,12.11
2019-03-09T16:17:06.865Z,12.08
2019-03-09T16:19:35.894Z,12.07
2019-03-09T16:22:05.401Z,12.05
2019-03-09T16:24:34.432Z,12.05
2019-03-09T16:27:03.549Z,12.01
2019-03-09T16:29:32.477Z,11.99
2019-03-09T16:32:02.476Z,11.98
2019-03-09T16:34:31.477Z,11.95
2019-03-09T16:37:00.507Z,11.92
2019-03-09T16:39:29.456Z,11.89
2019-03-09T16:41:58.496Z,11.88
2019-03-09T16:44:27.524Z,11.86
2019-03-09T16:46:56.670Z,11.84
2019-03-09T16:49:25.525Z,11.80
2019-03-09T16:51:54.626Z,11.76
2019-03-09T16:54:23.583Z,11.76
2019-03-09T16:56:52.587Z,11.74
2019-03-09T16:59:21.588Z,11.73
2019-03-09T17:01:50.669Z,11.71
2019-03-09T17:04:19.625Z,11.71
2019-03-09T17:06:48.775Z,11.71
2019-03-09T17:09:17.688Z,11.69
2019-03-09T17:11:46.690Z,11.67
2019-03-09T17:14:15.632Z,11.66
2019-03-09T17:16:44.641Z,11.67
2019-03-09T17:19:13.616Z,11.65
2019-03-09T17:21:42.675Z,11.64
2019-03-09T17:24:11.639Z,11.63
2019-03-09T17:26:40.687Z,11.60
2019-03-09T17:29:09.520Z,11.59
2019-03-09T17:31:38.559Z,11.56
2019-03-09T17:34:07.746Z,11.55
2019-03-09T17:36:36.817Z,11.54
2019-03-09T17:39:26.839Z,11.51
2019-03-09T17:41:55.704Z,11.53
2019-03-09T17:44:24.497Z,11.50
2019-03-09T17:46:53.622Z,11.48
2019-03-09T17:49:22.607Z,11.47
2019-03-09T17:51:51.725Z,11.47
2019-03-09T17:54:20.552Z,11.45
2019-03-09T17:56:49.555Z,11.44
2019-03-09T17:59:18.593Z,11.45
2019-03-09T18:01:47.475Z,11.44
2019-03-09T18:04:16.491Z,11.43
2019-03-09T18:06:45.392Z,11.40
2019-03-09T18:09:14.301Z,11.40
2019-03-09T18:11:43.321Z,11.41
2019-03-09T18:14:12.339Z,11.40
2019-03-09T18:16:41.369Z,11.38
2019-03-09T18:19:10.239Z,11.37
2019-03-09T18:21:39.163Z,11.39
2019-03-09T18:24:08.129Z,11.36
2019-03-09T18:26:37.105Z,11.35
2019-03-09T18:29:06.057Z,11.37
2019-03-09T18:31:36.287Z,11.34
2019-03-09T18:34:05.211Z,11.34
2019-03-09T18:36:35.927Z,11.31
2019-03-09T18:39:05.523Z,11.31
2019-03-09T18:41:34.587Z,11.30
2019-03-09T18:44:03.565Z,11.28
2019-03-09T18:46:32.493Z,11.27
2019-03-09T18:49:01.498Z,11.27
2019-03-09T18:51:30.633Z,11.26
2019-03-09T18:53:59.585Z,11.26
2019-03-09T18:56:28.621Z,11.27
2019-03-09T18:58:57.651Z,11.25
2019-03-09T19:01:26.628Z,11.25
2019-03-09T19:03:55.776Z,11.24
2019-03-09T19:06:24.800Z,11.25
2019-03-09T19:08:53.706Z,11.24
2019-03-09T19:11:22.803Z,11.23
2019-03-09T19:13:51.799Z,11.23
2019-03-09T19:16:20.699Z,11.21
2019-03-09T19:18:49.622Z,11.21
2019-03-09T19:21:39.290Z,11.20
2019-03-09T19:24:08.384Z,11.19
2019-03-09T19:26:37.252Z,11.18
2019-03-09T19:29:06.220Z,11.18
2019-03-09T19:31:35.135Z,11.17
2019-03-09T19:34:04.173Z,11.18
2019-03-09T19:36:33.156Z,11.15
2019-03-09T19:39:02.092Z,11.14
2019-03-09T19:41:31.176Z,11.14
2019-03-09T19:44:00.233Z,11.13
2019-03-09T19:46:29.127Z,11.12
2019-03-09T19:48:58.158Z,11.12
2019-03-09T19:51:27.149Z,11.11
2019-03-09T19:53:56.159Z,11.09
2019-03-09T19:56:25.023Z,11.07
2019-03-09T19:58:53.906Z,11.07
2019-03-09T20:01:22.923Z,11.06
2019-03-09T20:03:51.960Z,11.06
2019-03-09T20:06:20.868Z,11.07
2019-03-09T20:08:49.898Z,11.06
2019-03-09T20:11:18.776Z,11.05
2019-03-09T20:13:47.689Z,11.03
2019-03-09T20:16:16.610Z,11.03
2019-03-09T20:18:45.596Z,11.03
2019-03-09T20:21:14.657Z,11.01
2019-03-09T20:23:43.537Z,11.00
2019-03-09T20:26:12.561Z,11.00
2019-03-09T20:28:41.357Z,10.98
2019-03-09T20:31:10.451Z,10.98
2019-03-09T20:33:39.368Z,10.97
2019-03-09T20:36:08.469Z,10.95
2019-03-09T20:38:37.770Z,10.95
2019-03-09T20:41:06.737Z,10.93
2019-03-09T20:43:35.816Z,10.92
2019-03-09T20:46:04.704Z,10.92
2019-03-09T20:48:33.766Z,10.91
2019-03-09T20:51:03.648Z,10.91
2019-03-09T20:53:32.586Z,10.89
2019-03-09T20:56:01.494Z,10.89
2019-03-09T20:58:30.507Z,10.89
2019-03-09T21:00:59.405Z,10.88
2019-03-09T21:03:28.328Z,10.86
2019-03-09T21:05:57.253Z,10.86
2019-03-09T21:11:04.166Z,10.86
2019-03-09T21:13:32.919Z,10.86
2019-03-09T21:16:01.907Z,10.83
2019-03-09T21:18:30.953Z,10.83
2019-03-09T21:20:59.941Z,10.82
2019-03-09T21:23:28.945Z,10.80
2019-03-09T21:25:57.841Z,10.78
2019-03-09T21:28:26.673Z,10.78
2019-03-09T21:30:55.648Z,10.78
2019-03-09T21:33:24.486Z,10.77
2019-03-09T21:35:53.774Z,10.77
2019-03-09T21:38:23.081Z,10.77
2019-03-09T21:40:51.972Z,10.77
2019-03-09T21:43:21.018Z,10.75
2019-03-09T21:45:50.119Z,10.75
2019-03-09T21:48:19.048Z,10.76
2019-03-09T21:50:47.931Z,10.72
2019-03-09T21:53:17.063Z,10.70
2019-03-09T21:55:46.056Z,10.70
2019-03-09T21:58:15.163Z,10.71
2019-03-09T22:00:44.178Z,10.71
2019-03-09T22:03:13.174Z,10.70
2019-03-09T22:05:42.111Z,10.69
2019-03-09T22:08:10.977Z,10.68
2019-03-09T22:10:40.240Z,10.67
2019-03-09T22:13:09.248Z,10.65
2019-03-09T22:15:38.280Z,10.66
2019-03-09T22:18:07.237Z,10.66
2019-03-09T22:20:36.285Z,10.65
2019-03-09T22:23:24.300Z,10.64
2019-03-09T22:25:53.355Z,10.65
2019-03-09T22:28:22.195Z,10.65
2019-03-09T22:30:51.009Z,10.61
2019-03-09T22:33:19.914Z,10.62
2019-03-09T22:35:49.051Z,10.63
2019-03-09T22:38:18.067Z,10.62
2019-03-09T22:40:47.087Z,10.62
2019-03-09T22:43:15.957Z,10.62
2019-03-09T22:45:44.827Z,10.60
2019-03-09T22:48:14.465Z,10.61
2019-03-09T22:51:02.534Z,10.60
2019-03-09T22:53:31.485Z,10.60
2019-03-09T22:56:00.501Z,10.58
2019-03-09T22:58:29.496Z,10.59
2019-03-09T23:03:34.232Z,10.58
2019-03-09T23:06:03.248Z,10.57
2019-03-09T23:08:32.250Z,10.57
2019-03-09T23:11:01.161Z,10.55
2019-03-09T23:13:30.123Z,10.55
2019-03-09T23:15:59.350Z,10.56
2019-03-09T23:18:28.591Z,10.55
2019-03-09T23:20:57.570Z,10.56
2019-03-09T23:23:26.653Z,10.55
2019-03-09T23:25:55.651Z,10.55
2019-03-09T23:28:24.742Z,10.54
2019-03-09T23:30:54.562Z,10.54
2019-03-09T23:33:23.741Z,10.53
2019-03-09T23:35:52.740Z,10.53
2019-03-09T23:38:21.674Z,10.53
2019-03-09T23:40:50.794Z,10.52
2019-03-09T23:43:19.684Z,10.53
2019-03-09T23:45:48.710Z,10.51
2019-03-09T23:48:17.689Z,10.53
2019-03-09T23:50:46.583Z,10.52
2019-03-09T23:53:15.809Z,10.52
2019-03-09T23:56:03.776Z,10.51
2019-03-09T23:58:32.870Z,10.50
